Other Surface Observations
Issued by NWS Great Falls, MT

Home | Current Version | Previous Version | Text Only | Print | Product List | Glossary On
Versions: 1 2 3 4 5 6 7 8 9 10 11 12 13 14 15 16 17 18 19 20 21 22 23 24 25 26 27 28 29 30 31 32 33 34 35 36 37 38 39 40 41 42 43 44 45 46 47 48 49 50
000
SXUS55 KTFX 291244
OSOTFX
AREA AWOS OBSERVATIONS
NATIONAL WEATHER SERVICE GREAT FALLS MT
0644 AM MDT SAT APR 29 2017

METAR KPWD 291245Z AUTO 29003KT 7SM 02/01 A3022 RMK PLENTYWOOD
METAR KPO1 291245Z AUTO 00000KT 9SM 03/M01 A3026 RMK POPLAR
METAR KS71 291245Z AUTO 00000KT 5SM M02/M02 A3021 RMK CHINOOK
METAR K79S 291245Z AUTO 1SM 01/01  RMK A01 VIS 1/4V4 RMK FORT BENTON
METAR K38S 291245Z AUTO 00000KT 10SM M03/M04 A3026 RMK DEER LODGE
METAR K3U3 291245Z AUTO 27003KT 10SM M03/M06 A3023 RMK ANACONDA
METAR K6S5 291245Z AUTO 18005KT 10SM M01/M04 A3026 RMK HAMILTON
METAR KS59 291245Z AUTO 16003KT 1SM 02/02 A3024 RMK LIBBY
METAR K88M 291245Z AUTO 00000KT 10SM 03/02 A3021 RMK EUREKA



USA.gov is the U.S. government's official web portal to all federal, state and local government web resources and services.